首页
METAR-TAF:

METAR-TAF

机场 :

San Joaquín, 玻利维亚

纬度: 13-04S, 经度: 064-49W, 海拔: 140米

当前天气观测

该预报发布于4小时和56分钟前的22:00 UTC
静风
温度 23°C
湿度 100%
气压 1006 hPa
能見度: 5000
散云层高于1000英尺
少量云层高于2300英尺, 积雨云.
阴天层高于7000英尺
小雨

METAR: SLJO 222200Z 00000KT 5000 -RA SCT010 FEW023CB OVC070 23/23 Q1006

时间: 22:56 (02:56 UTC)


TAF: 丢失

超过4000个机场的气象观测和天气预报(METAR&TAF报告)。

可查询的气象台以黄色和红色小点在地图上表示。

将鼠标移到小点上方,可查看气象台名称。

然后点击查看天气观测和预报。

如需切换地图:点击带黑十字的绿色按钮放大地图;点击带横线的绿色按钮缩小地图;或者点击绿色箭头查看邻近地区的地图。


METAR-TAF: